createdAt,value
2023-04-29T00:02:02.628Z,17.55
2023-04-29T00:04:29.720Z,18.00
2023-04-29T00:06:56.570Z,13.07
2023-04-29T00:35:11.169Z,15.70
2023-04-29T00:37:38.216Z,16.35
2023-04-29T00:40:06.597Z,14.32
2023-04-29T00:42:33.875Z,12.30
2023-04-29T00:45:00.538Z,19.90
2023-04-29T01:10:44.776Z,18.83
2023-04-29T01:13:50.408Z,13.52
2023-04-29T01:16:37.416Z,18.15
2023-04-29T01:19:23.053Z,17.83
2023-04-29T01:29:59.826Z,15.98
2023-04-29T02:17:40.240Z,18.45
2023-04-29T02:20:10.101Z,16.00
2023-04-29T02:22:36.778Z,15.88
2023-04-29T02:25:03.740Z,19.38
2023-04-29T02:27:30.369Z,19.67
2023-04-29T02:41:31.146Z,20.52
2023-04-29T02:43:57.984Z,22.58
2023-04-29T02:46:24.672Z,17.65
2023-04-29T03:19:51.307Z,14.55
2023-04-29T03:22:19.088Z,15.80
2023-04-29T03:24:45.808Z,16.40
2023-04-29T04:29:34.503Z,15.48
2023-04-29T04:32:01.240Z,18.60
2023-04-29T04:34:27.949Z,16.50
2023-04-29T04:44:37.840Z,18.55
2023-04-29T04:47:05.286Z,18.23
2023-04-29T04:49:31.958Z,19.42
2023-04-29T04:59:31.083Z,15.95
2023-04-29T05:01:57.860Z,16.25
2023-04-29T05:04:24.897Z,16.10
2023-04-29T05:06:51.876Z,16.83
2023-04-29T05:09:18.506Z,18.60
2023-04-29T05:11:46.622Z,16.80
2023-04-29T05:36:33.253Z,17.02
2023-04-29T05:38:59.860Z,19.13
2023-04-29T05:41:26.825Z,15.65
2023-04-29T05:43:53.596Z,19.80
2023-04-29T05:46:20.677Z,19.30
2023-04-29T05:48:47.327Z,20.05
2023-04-29T11:08:24.128Z,7.72
2023-04-29T11:11:00.460Z,6.85
2023-04-29T11:13:29.681Z,8.10
2023-04-29T11:16:10.023Z,6.57
2023-04-29T11:18:57.481Z,6.78
2023-04-29T11:21:24.165Z,5.78
2023-04-29T11:23:52.250Z,6.75
2023-04-29T11:26:22.917Z,5.97
2023-04-29T11:28:52.107Z,5.82
2023-04-29T11:31:18.684Z,7.28
2023-04-29T11:33:47.238Z,7.90
2023-04-29T11:36:14.297Z,8.27
2023-04-29T11:38:41.894Z,6.10
2023-04-29T11:41:11.203Z,4.22
2023-04-29T11:43:39.855Z,4.93
2023-04-29T11:46:13.854Z,6.28
2023-04-29T11:48:50.726Z,5.95
2023-04-29T11:51:19.057Z,6.50
2023-04-29T11:53:46.235Z,5.93
2023-04-29T11:56:13.024Z,6.20
2023-04-29T11:58:39.909Z,6.90
2023-04-29T12:01:06.694Z,6.10
2023-04-29T12:03:34.436Z,5.45
2023-04-29T12:06:02.574Z,5.88
2023-04-29T12:08:30.194Z,6.28
2023-04-29T12:10:58.413Z,5.75
2023-04-29T12:13:28.975Z,4.72
2023-04-29T12:15:56.927Z,5.60
2023-04-29T12:18:24.167Z,6.30
2023-04-29T12:20:58.541Z,7.00
2023-04-29T12:23:28.720Z,6.55
2023-04-29T12:26:00.678Z,5.93
2023-04-29T12:28:27.684Z,5.07
2023-04-29T12:30:55.224Z,6.47
2023-04-29T12:33:27.217Z,5.38
2023-04-29T12:35:57.571Z,5.18
2023-04-29T12:38:29.855Z,5.00
2023-04-29T12:41:04.047Z,4.50
2023-04-29T12:43:32.130Z,4.03
2023-04-29T12:46:06.141Z,4.20
2023-04-29T12:48:34.286Z,4.68
2023-04-29T12:51:01.972Z,5.45
2023-04-29T12:53:32.560Z,5.60
2023-04-29T12:55:59.455Z,6.30
2023-04-29T12:58:29.207Z,5.93
2023-04-29T13:00:56.357Z,5.63
2023-04-29T13:03:24.009Z,3.40
2023-04-29T13:05:53.569Z,4.22
2023-04-29T13:08:20.421Z,3.70
2023-04-29T13:10:47.239Z,5.13
2023-04-29T13:13:13.981Z,4.38
2023-04-29T13:15:40.646Z,5.68
2023-04-29T13:18:07.572Z,4.18
2023-04-29T13:20:40.966Z,4.10
2023-04-29T13:23:09.279Z,4.93
2023-04-29T13:25:36.274Z,3.88
2023-04-29T13:28:02.991Z,5.55
2023-04-29T13:30:29.656Z,5.60
2023-04-29T13:33:00.464Z,4.38
2023-04-29T13:35:36.230Z,4.75
2023-04-29T13:38:03.096Z,3.90
2023-04-29T13:40:30.804Z,4.20
2023-04-29T13:43:05.003Z,3.10
2023-04-29T13:45:38.829Z,4.10
2023-04-29T13:48:17.053Z,3.77
2023-04-29T13:53:50.049Z,2.63
2023-04-29T13:59:19.806Z,2.67
2023-04-29T14:02:15.037Z,2.65
2023-04-29T14:04:12.607Z,2.60
2023-04-29T14:06:39.720Z,2.45
2023-04-29T14:09:07.085Z,2.22
2023-04-29T14:11:36.588Z,2.40
2023-04-29T14:14:03.616Z,2.30
2023-04-29T14:16:30.717Z,2.70
2023-04-29T14:18:57.508Z,2.75
2023-04-29T14:21:24.456Z,3.50
2023-04-29T14:23:51.367Z,3.50
2023-04-29T14:26:27.822Z,2.92
2023-04-29T14:28:59.688Z,3.00
2023-04-29T14:31:31.409Z,3.15
2023-04-29T14:33:58.791Z,3.42
2023-04-29T14:36:26.639Z,3.05
2023-04-29T14:38:53.809Z,2.22
2023-04-29T14:41:23.239Z,2.80
2023-04-29T14:43:49.967Z,3.20
2023-04-29T14:46:17.087Z,3.78
2023-04-29T14:48:43.919Z,3.05
2023-04-29T14:51:10.694Z,2.72
2023-04-29T14:53:37.358Z,3.40
2023-04-29T14:56:04.203Z,3.55
2023-04-29T14:58:31.186Z,3.15
2023-04-29T15:00:57.853Z,2.75
2023-04-29T15:03:24.894Z,2.83
2023-04-29T15:05:51.954Z,3.90
2023-04-29T15:08:19.441Z,4.70
2023-04-29T15:10:47.829Z,3.97
2023-04-29T15:13:15.070Z,4.00
2023-04-29T15:15:42.126Z,5.25
2023-04-29T15:18:09.290Z,5.47
2023-04-29T15:20:37.430Z,5.13
2023-04-29T15:23:05.544Z,4.47
2023-04-29T15:25:36.383Z,5.07
2023-04-29T15:28:04.859Z,6.10
2023-04-29T15:30:32.377Z,6.63
2023-04-29T15:32:59.224Z,5.97
2023-04-29T15:35:26.084Z,4.55
2023-04-29T15:37:52.740Z,5.70
2023-04-29T15:40:20.091Z,7.80
2023-04-29T15:42:46.962Z,5.65
2023-04-29T15:45:13.829Z,5.75
2023-04-29T15:47:40.510Z,5.22
2023-04-29T15:50:09.479Z,5.80
2023-04-29T15:52:36.810Z,6.28
2023-04-29T15:55:04.017Z,6.80
2023-04-29T15:57:30.701Z,6.68
2023-04-29T15:59:57.401Z,7.57
2023-04-29T16:02:24.091Z,5.88
2023-04-29T16:04:50.838Z,6.13
2023-04-29T16:07:18.453Z,7.05
2023-04-29T16:09:46.754Z,4.85
2023-04-29T16:12:14.207Z,6.93
2023-04-29T16:14:40.852Z,5.93
2023-04-29T16:17:07.974Z,5.93
2023-04-29T16:19:36.776Z,5.50
2023-04-29T16:22:04.582Z,6.20
2023-04-29T16:24:31.263Z,5.32
2023-04-29T16:27:12.585Z,7.03
2023-04-29T16:29:39.160Z,7.03
2023-04-29T16:32:06.274Z,6.70
2023-04-29T16:34:32.934Z,7.47
2023-04-29T16:36:59.716Z,6.57
2023-04-29T16:39:26.715Z,6.63
2023-04-29T16:41:53.289Z,5.25
2023-04-29T16:44:19.920Z,5.50
2023-04-29T16:46:46.737Z,7.45
2023-04-29T16:49:15.488Z,6.47
2023-04-29T16:51:42.080Z,4.35
2023-04-29T16:54:08.802Z,7.18
2023-04-29T16:56:35.466Z,5.53
2023-04-29T16:59:02.097Z,6.10
2023-04-29T17:01:28.783Z,6.25
2023-04-29T17:03:55.620Z,7.20
2023-04-29T17:06:23.255Z,5.95
2023-04-29T17:08:51.551Z,5.07
2023-04-29T17:11:18.612Z,5.43
2023-04-29T17:13:46.248Z,6.20
2023-04-29T17:16:14.391Z,6.63
2023-04-29T17:18:41.629Z,6.75
2023-04-29T17:21:08.871Z,5.78
2023-04-29T17:23:36.228Z,5.20
2023-04-29T17:26:04.440Z,5.20
2023-04-29T17:28:31.100Z,4.82
2023-04-29T17:31:00.899Z,4.75
2023-04-29T17:33:33.954Z,4.72
2023-04-29T17:36:06.079Z,4.65
2023-04-29T17:38:36.077Z,3.20
2023-04-29T17:41:03.533Z,5.22
2023-04-29T17:43:33.031Z,4.22
2023-04-29T17:48:26.393Z,5.35
2023-04-29T17:50:53.958Z,3.70
2023-04-29T17:53:20.765Z,3.78
2023-04-29T17:55:47.356Z,4.65
2023-04-29T17:58:13.924Z,4.13
2023-04-29T18:00:41.718Z,3.95
2023-04-29T18:03:08.586Z,2.83
2023-04-29T18:05:35.442Z,3.80
2023-04-29T18:08:02.084Z,3.55
2023-04-29T18:10:28.746Z,4.32
2023-04-29T18:12:55.420Z,3.47
2023-04-29T18:15:23.076Z,4.28
2023-04-29T18:17:49.895Z,2.80
2023-04-29T18:20:16.664Z,3.55
2023-04-29T18:22:43.365Z,3.40
2023-04-29T18:25:11.133Z,3.47
2023-04-29T18:27:37.902Z,2.83
2023-04-29T18:30:05.032Z,3.60
2023-04-29T18:32:31.809Z,3.67
2023-04-29T18:34:59.528Z,3.38
2023-04-29T18:37:26.731Z,3.00
2023-04-29T18:39:53.608Z,3.53
2023-04-29T18:42:21.094Z,3.33
2023-04-29T18:44:49.308Z,3.67
2023-04-29T18:47:16.028Z,2.78
2023-04-29T18:49:42.680Z,3.60
2023-04-29T18:52:09.356Z,3.63
2023-04-29T18:54:36.132Z,3.90
2023-04-29T18:57:03.784Z,3.95
2023-04-29T18:59:30.522Z,3.50
2023-04-29T19:01:57.225Z,3.78
2023-04-29T19:04:23.981Z,3.75
2023-04-29T19:06:50.681Z,3.97
2023-04-29T19:09:17.296Z,3.80
2023-04-29T19:11:44.255Z,4.35
2023-04-29T19:14:10.963Z,4.28
2023-04-29T19:16:38.227Z,4.07
2023-04-29T19:19:04.971Z,4.47
2023-04-29T19:21:33.283Z,4.80
2023-04-29T19:24:00.238Z,4.88
2023-04-29T19:26:26.994Z,5.00
2023-04-29T19:28:53.568Z,4.97
2023-04-29T19:31:20.630Z,3.50
2023-04-29T19:33:47.985Z,5.03
2023-04-29T19:36:14.700Z,5.55
2023-04-29T19:38:41.408Z,5.80
2023-04-29T19:41:08.390Z,5.43
2023-04-29T19:43:35.203Z,5.47
2023-04-29T19:46:01.959Z,5.60
2023-04-29T19:48:28.585Z,5.13
2023-04-29T19:50:55.317Z,5.85
2023-04-29T19:53:21.950Z,7.00
2023-04-29T19:55:50.564Z,5.80
2023-04-29T19:58:18.294Z,5.82
2023-04-29T20:00:45.149Z,5.53
2023-04-29T20:03:12.632Z,5.70
2023-04-29T20:05:40.124Z,6.53
2023-04-29T20:08:07.224Z,6.40
2023-04-29T20:10:34.008Z,6.28
2023-04-29T20:13:00.978Z,7.60
2023-04-29T20:15:27.637Z,5.57
2023-04-29T20:17:54.583Z,5.28
2023-04-29T20:20:21.299Z,7.00
2023-04-29T20:22:47.986Z,6.82
2023-04-29T20:25:14.647Z,6.22
2023-04-29T20:27:41.506Z,7.65
2023-04-29T20:30:11.647Z,6.38
2023-04-29T20:32:38.657Z,7.32
2023-04-29T20:35:05.809Z,7.30
2023-04-29T20:37:32.641Z,5.95
2023-04-29T20:39:59.711Z,5.80
2023-04-29T20:42:26.951Z,5.85
2023-04-29T20:44:53.527Z,6.18
2023-04-29T20:47:20.626Z,5.93
2023-04-29T20:49:47.315Z,7.13
2023-04-29T20:52:13.966Z,5.60
2023-04-29T20:54:40.595Z,6.30
2023-04-29T20:57:07.282Z,6.15
2023-04-29T20:59:34.042Z,6.88
2023-04-29T21:02:00.762Z,6.28
2023-04-29T21:04:27.524Z,5.82
2023-04-29T21:06:54.236Z,7.15
2023-04-29T21:09:21.549Z,6.05
2023-04-29T21:11:48.459Z,7.00
2023-04-29T21:14:15.267Z,5.90
2023-04-29T21:16:42.742Z,5.80
2023-04-29T21:19:09.545Z,6.15
2023-04-29T21:21:36.163Z,6.78
2023-04-29T21:24:02.974Z,6.18
2023-04-29T21:26:29.694Z,6.35
2023-04-29T21:28:56.514Z,6.55
2023-04-29T21:31:23.219Z,7.57
2023-04-29T21:33:49.943Z,6.75
2023-04-29T21:36:16.625Z,6.82
2023-04-29T21:38:43.232Z,7.45
2023-04-29T21:41:29.817Z,6.55
2023-04-29T21:44:01.222Z,7.40
2023-04-29T21:46:28.970Z,7.55
2023-04-29T21:48:57.520Z,7.95
2023-04-29T21:51:24.473Z,8.48
2023-04-29T21:53:51.434Z,7.80
2023-04-29T21:56:18.708Z,7.78
2023-04-29T21:58:45.962Z,6.97
2023-04-29T22:01:26.652Z,7.32
2023-04-29T22:03:55.183Z,7.45
2023-04-29T22:06:22.214Z,7.50
2023-04-29T22:08:48.948Z,7.15
2023-04-29T22:11:15.956Z,7.80
2023-04-29T22:13:42.648Z,6.82
2023-04-29T22:16:09.344Z,7.32
2023-04-29T22:18:35.989Z,7.75
2023-04-29T22:21:02.671Z,7.68
2023-04-29T22:23:29.334Z,9.02
2023-04-29T22:25:56.199Z,8.68
2023-04-29T22:28:23.340Z,7.55
2023-04-29T22:30:49.987Z,7.70
2023-04-29T22:33:16.734Z,8.13
2023-04-29T22:35:43.452Z,8.65
2023-04-29T22:38:10.373Z,9.52
2023-04-29T22:40:38.080Z,7.55
2023-04-29T22:43:04.808Z,8.93
2023-04-29T22:45:32.034Z,8.43
2023-04-29T22:47:58.686Z,7.25
2023-04-29T22:50:25.563Z,9.15
2023-04-29T22:52:52.197Z,8.80
2023-04-29T22:55:18.979Z,8.82
2023-04-29T22:57:45.784Z,9.07
2023-04-29T23:00:13.163Z,8.52
2023-04-29T23:02:40.618Z,8.35
2023-04-29T23:05:08.419Z,8.82
2023-04-29T23:07:35.681Z,8.02
2023-04-29T23:10:02.502Z,8.95
2023-04-29T23:12:30.427Z,8.88
2023-04-29T23:14:57.162Z,9.60
2023-04-29T23:17:24.069Z,8.63
2023-04-29T23:19:51.108Z,9.48
2023-04-29T23:22:17.928Z,8.40
2023-04-29T23:24:44.839Z,9.52
2023-04-29T23:27:11.581Z,8.45
2023-04-29T23:29:39.014Z,10.00
2023-04-29T23:32:05.869Z,9.25
2023-04-29T23:34:32.432Z,8.80
2023-04-29T23:37:01.303Z,8.98
2023-04-29T23:39:28.057Z,8.48
2023-04-29T23:41:54.723Z,8.43
2023-04-29T23:44:21.455Z,8.80
2023-04-29T23:46:48.156Z,9.13
2023-04-29T23:49:14.846Z,9.68
2023-04-29T23:51:41.523Z,9.52
2023-04-29T23:54:08.187Z,10.82
2023-04-29T23:56:34.830Z,8.48
2023-04-29T23:59:01.463Z,9.45
